Time;durP1;ratioP1;P1;durP2;ratioP2;P2;SDS_P1;SDS_P2;PMS_P1;PMS_P2;Temp;Humidity;BMP_temperature;BMP_pressure;BME280_temperature;BME280_humidity;BME280_pressure;Samples;Min_cycle;Max_cycle;Signal;HPM_P1;HPM_P2
2021/10/16 00:01:50;;;;;;;1.60;1.27;;;8.20;98.00;;;;;;5015060;28;21018;-67
2021/10/16 00:04:17;;;;;;;1.70;1.30;;;8.10;98.00;;;;;;5032542;28;20531;-66
2021/10/16 00:06:44;;;;;;;1.50;1.33;;;8.00;98.00;;;;;;5032659;28;21028;-66
2021/10/16 00:09:11;;;;;;;1.97;1.73;;;7.90;98.00;;;;;;5032399;28;20517;-66
2021/10/16 00:11:38;;;;;;;1.93;1.60;;;7.90;98.00;;;;;;5032485;28;20494;-67
2021/10/16 00:14:05;;;;;;;1.67;1.20;;;8.00;98.00;;;;;;5032406;28;20807;-66
2021/10/16 00:16:33;;;;;;;1.60;1.30;;;8.10;98.00;;;;;;5015019;28;20520;-66
2021/10/16 00:19:01;;;;;;;1.57;1.20;;;8.10;98.00;;;;;;5032182;28;20528;-66
2021/10/16 00:21:28;;;;;;;1.70;1.33;;;8.00;98.00;;;;;;5015052;28;20465;-66
2021/10/16 00:23:55;;;;;;;3.03;1.33;;;7.80;98.00;;;;;;5032278;28;20951;-66
2021/10/16 00:26:22;;;;;;;1.23;1.10;;;7.90;98.00;;;;;;5032787;28;20460;-66
2021/10/16 00:28:49;;;;;;;2.13;1.53;;;8.00;98.00;;;;;;5014567;28;20544;-66
2021/10/16 00:31:16;;;;;;;1.63;1.53;;;8.10;98.00;;;;;;5032169;28;20456;-66
2021/10/16 00:33:44;;;;;;;1.30;1.27;;;8.30;98.00;;;;;;5014370;28;20540;-66
2021/10/16 00:36:11;;;;;;;1.70;1.40;;;8.30;98.00;;;;;;5032116;28;20825;-66
2021/10/16 00:38:38;;;;;;;4.23;1.93;;;8.30;98.00;;;;;;5031803;28;20528;-66
2021/10/16 00:41:05;;;;;;;1.20;1.00;;;8.20;98.00;;;;;;5031988;28;20511;-66
2021/10/16 00:43:32;;;;;;;1.30;1.20;;;8.00;98.00;;;;;;5014296;28;20468;-66
2021/10/16 00:45:59;;;;;;;4.30;1.73;;;8.10;98.00;;;;;;5031569;28;20502;-66
2021/10/16 00:48:26;;;;;;;1.73;1.50;;;8.20;98.00;;;;;;5031601;28;20522;-66
2021/10/16 00:50:54;;;;;;;1.20;1.10;;;8.20;98.00;;;;;;5031497;28;21033;-66
2021/10/16 00:53:21;;;;;;;2.50;1.30;;;8.10;98.00;;;;;;5031794;28;20520;-66
2021/10/16 00:55:50;;;;;;;1.20;1.00;;;8.20;98.00;;;;;;5031553;28;20493;-66
2021/10/16 00:58:18;;;;;;;1.20;1.10;;;8.40;98.00;;;;;;5031557;28;20495;-66
2021/10/16 01:00:45;;;;;;;1.20;1.00;;;8.30;98.00;;;;;;5031387;28;20489;-66
2021/10/16 01:03:12;;;;;;;1.63;1.53;;;8.30;98.00;;;;;;5014207;28;20516;-66
2021/10/16 01:05:39;;;;;;;1.97;1.37;;;8.40;98.00;;;;;;5031426;28;20877;-66
2021/10/16 01:08:10;;;;;;;2.37;1.30;;;8.70;98.00;;;;;;5013867;28;20465;-66
2021/10/16 01:10:38;;;;;;;1.80;1.00;;;8.80;98.00;;;;;;5031333;28;20483;-66
2021/10/16 01:13:04;;;;;;;1.60;1.30;;;8.80;98.00;;;;;;5013900;28;20558;-66
2021/10/16 01:15:32;;;;;;;1.27;1.10;;;8.70;98.00;;;;;;5031236;28;20530;-66
2021/10/16 01:18:01;;;;;;;1.20;1.00;;;8.90;98.00;;;;;;5031121;28;20460;-66
2021/10/16 01:20:30;;;;;;;1.40;1.20;;;8.70;98.00;;;;;;5031175;28;20591;-66
2021/10/16 01:23:00;;;;;;;3.10;1.57;;;8.50;98.00;;;;;;5031410;28;20493;-66
2021/10/16 01:25:27;;;;;;;2.33;1.83;;;8.40;98.00;;;;;;5031158;28;20492;-66
2021/10/16 01:27:56;;;;;;;1.20;1.07;;;8.30;98.00;;;;;;5030923;28;20474;-66
2021/10/16 01:30:25;;;;;;;1.30;1.13;;;8.40;98.00;;;;;;5031203;28;20604;-66
2021/10/16 01:32:52;;;;;;;1.30;1.17;;;8.50;98.00;;;;;;5031090;28;20458;-66
2021/10/16 01:35:19;;;;;;;3.87;1.40;;;8.60;98.00;;;;;;5031146;28;20493;-66
2021/10/16 01:37:49;;;;;;;1.30;1.30;;;8.80;98.00;;;;;;5031135;28;20516;-66
2021/10/16 01:40:17;;;;;;;2.07;1.33;;;8.80;98.00;;;;;;5031258;28;20514;-66
2021/10/16 01:42:45;;;;;;;1.97;1.50;;;8.80;98.00;;;;;;5031030;28;20516;-66
2021/10/16 01:45:14;;;;;;;1.30;1.10;;;8.80;98.00;;;;;;5030996;28;20500;-66
2021/10/16 01:47:50;;;;;;;1.80;1.17;;;8.90;98.00;;;;;;5031219;28;20544;-67
2021/10/16 01:50:18;;;;;;;1.70;1.23;;;8.80;98.00;;;;;;5013471;28;20521;-66
2021/10/16 01:52:45;;;;;;;2.10;1.47;;;8.90;98.00;;;;;;5031152;28;20940;-66
2021/10/16 01:55:12;;;;;;;1.60;1.17;;;9.00;98.00;;;;;;5031008;28;20482;-66
2021/10/16 01:57:41;;;;;;;1.30;1.20;;;9.10;98.00;;;;;;5013459;28;20497;-66
2021/10/16 02:00:09;;;;;;;1.60;1.30;;;9.10;98.00;;;;;;5030802;28;20483;-66
2021/10/16 02:02:37;;;;;;;1.30;1.10;;;8.90;98.00;;;;;;5030721;28;20468;-66
2021/10/16 02:05:07;;;;;;;2.53;1.37;;;8.70;98.00;;;;;;5034835;28;20767;-67
2021/10/16 02:07:34;;;;;;;1.60;1.30;;;8.70;98.00;;;;;;5034775;28;20464;-66
2021/10/16 02:10:01;;;;;;;2.03;1.27;;;8.60;98.00;;;;;;5034840;28;20889;-66
2021/10/16 02:12:28;;;;;;;1.50;1.10;;;8.60;98.00;;;;;;5017340;28;20882;-66
2021/10/16 02:14:56;;;;;;;1.30;1.30;;;8.60;98.00;;;;;;5034772;28;20977;-66
2021/10/16 02:17:24;;;;;;;1.40;1.20;;;8.60;98.00;;;;;;5034684;28;20508;-66
2021/10/16 02:19:52;;;;;;;2.23;1.30;;;8.40;98.00;;;;;;5034531;28;20541;-66
2021/10/16 02:22:19;;;;;;;1.83;1.30;;;8.20;98.00;;;;;;5034665;28;20491;-67
2021/10/16 02:24:46;;;;;;;1.30;1.07;;;8.20;98.00;;;;;;5034424;28;20802;-66
2021/10/16 02:27:13;;;;;;;1.83;1.20;;;8.30;98.00;;;;;;5034656;28;20518;-67
2021/10/16 02:29:40;;;;;;;3.83;2.13;;;8.30;98.00;;;;;;5034225;28;20473;-66
2021/10/16 02:32:09;;;;;;;2.70;1.50;;;8.20;98.00;;;;;;5034434;28;20523;-66
2021/10/16 02:34:36;;;;;;;1.40;1.10;;;8.00;98.00;;;;;;5016669;28;20497;-66
2021/10/16 02:37:05;;;;;;;3.60;1.23;;;8.00;98.00;;;;;;5034456;28;20456;-66
2021/10/16 02:39:32;;;;;;;1.80;1.20;;;7.80;98.00;;;;;;5034011;28;20525;-66
2021/10/16 02:41:59;;;;;;;1.20;1.03;;;7.70;98.00;;;;;;5034168;28;20462;-67
2021/10/16 02:44:26;;;;;;;1.50;1.50;;;7.70;98.00;;;;;;5016576;28;20560;-66
2021/10/16 02:46:55;;;;;;;1.33;1.27;;;7.70;98.00;;;;;;5034140;28;20969;-66
2021/10/16 02:49:23;;;;;;;2.37;1.50;;;7.70;98.00;;;;;;5016263;28;20456;-66
2021/10/16 02:51:51;;;;;;;2.03;1.50;;;7.70;98.00;;;;;;5034070;28;20459;-66
2021/10/16 02:54:18;;;;;;;2.10;1.87;;;7.90;98.00;;;;;;5034011;28;20453;-66
2021/10/16 02:56:45;;;;;;;2.17;1.73;;;8.10;98.00;;;;;;5033877;28;20488;-66
2021/10/16 02:59:12;;;;;;;1.53;1.30;;;8.10;98.00;;;;;;5016564;28;20935;-66
2021/10/16 03:01:39;;;;;;;1.20;1.10;;;8.10;98.00;;;;;;5033858;28;20556;-66
2021/10/16 03:04:06;;;;;;;1.30;1.30;;;8.00;98.00;;;;;;5034021;28;20497;-66
2021/10/16 03:06:34;;;;;;;1.30;1.10;;;7.90;98.00;;;;;;5034080;28;20505;-66
2021/10/16 03:09:02;;;;;;;1.87;1.30;;;7.90;98.00;;;;;;5033832;28;20907;-66
2021/10/16 03:11:28;;;;;;;2.10;1.97;;;8.10;98.00;;;;;;5034009;28;20464;-66
2021/10/16 03:13:57;;;;;;;1.77;1.20;;;8.20;98.00;;;;;;5033383;28;20458;-66
2021/10/16 03:16:24;;;;;;;1.30;1.20;;;8.30;98.00;;;;;;5032745;28;20493;-69
2021/10/16 03:18:52;;;;;;;1.20;1.10;;;8.40;98.00;;;;;;5033533;28;20470;-66
2021/10/16 03:21:19;;;;;;;1.83;1.60;;;8.30;98.00;;;;;;5033584;28;20462;-66
2021/10/16 03:23:48;;;;;;;1.43;1.33;;;8.30;98.00;;;;;;5033321;28;20498;-66
2021/10/16 03:26:15;;;;;;;1.60;1.30;;;8.40;98.00;;;;;;5033468;28;20530;-66
2021/10/16 03:28:42;;;;;;;1.50;1.37;;;8.30;98.00;;;;;;5033216;28;20514;-66
2021/10/16 03:31:09;;;;;;;1.20;1.10;;;8.10;98.00;;;;;;5033246;28;20493;-66
2021/10/16 03:33:36;;;;;;;1.47;1.30;;;8.00;98.00;;;;;;5015647;28;20529;-66
2021/10/16 03:36:04;;;;;;;1.57;1.50;;;7.90;98.00;;;;;;5033156;28;20556;-66
2021/10/16 03:38:30;;;;;;;1.60;1.23;;;7.90;98.00;;;;;;5032587;28;20452;-67
2021/10/16 03:41:00;;;;;;;2.03;1.50;;;8.00;98.00;;;;;;5032914;28;20479;-66
2021/10/16 03:43:27;;;;;;;1.20;1.00;;;7.90;98.00;;;;;;5032979;28;20459;-66
2021/10/16 03:45:55;;;;;;;1.20;1.03;;;7.80;98.00;;;;;;5032854;28;20492;-66
2021/10/16 03:48:22;;;;;;;1.40;1.30;;;7.90;98.00;;;;;;5032997;28;20500;-66
2021/10/16 03:50:49;;;;;;;1.63;1.20;;;8.00;98.00;;;;;;5015175;28;21005;-66
2021/10/16 03:53:17;;;;;;;1.30;1.20;;;8.10;98.00;;;;;;5032975;28;20509;-66
2021/10/16 03:55:44;;;;;;;1.80;1.57;;;8.00;98.00;;;;;;5032742;28;20461;-66
2021/10/16 03:58:12;;;;;;;1.40;1.20;;;7.90;98.00;;;;;;5032943;28;20456;-66
2021/10/16 04:00:39;;;;;;;1.20;1.00;;;7.80;98.00;;;;;;5032665;28;20493;-66
2021/10/16 04:03:09;;;;;;;1.53;1.10;;;7.80;98.00;;;;;;5032796;28;20487;-66
2021/10/16 04:05:36;;;;;;;1.20;1.10;;;8.00;98.00;;;;;;5032553;28;20460;-66
2021/10/16 04:08:05;;;;;;;1.30;1.03;;;8.20;98.00;;;;;;5032630;28;20495;-66
2021/10/16 04:10:32;;;;;;;1.80;1.30;;;8.30;98.00;;;;;;5032369;28;20467;-66
2021/10/16 04:13:00;;;;;;;1.20;1.10;;;8.30;98.00;;;;;;5032597;28;20466;-67
2021/10/16 04:15:29;;;;;;;1.20;1.17;;;8.30;98.00;;;;;;5032568;28;20518;-66
2021/10/16 04:17:56;;;;;;;1.53;1.20;;;8.30;98.00;;;;;;5032304;28;20456;-66
2021/10/16 04:20:23;;;;;;;2.03;1.20;;;8.40;98.00;;;;;;5032315;28;20488;-66
2021/10/16 04:22:50;;;;;;;1.20;1.00;;;8.30;98.00;;;;;;5014925;28;20454;-66
2021/10/16 04:25:17;;;;;;;1.60;1.27;;;8.20;98.00;;;;;;5014790;28;20467;-66
2021/10/16 04:27:44;;;;;;;1.20;1.10;;;8.00;98.00;;;;;;5031922;28;20809;-66
2021/10/16 04:30:12;;;;;;;1.20;1.00;;;8.00;98.00;;;;;;5032597;28;20461;-66
2021/10/16 04:32:40;;;;;;;2.60;1.30;;;8.00;98.00;;;;;;5032379;28;21132;-66
2021/10/16 04:35:10;;;;;;;1.43;1.30;;;8.00;98.00;;;;;;5032352;28;20558;-66
2021/10/16 04:37:37;;;;;;;1.20;1.00;;;7.90;98.00;;;;;;5032049;28;20452;-66
2021/10/16 04:40:12;;;;;;;1.63;1.20;;;7.90;98.00;;;;;;5032059;28;20490;-66
2021/10/16 04:42:40;;;;;;;4.90;1.60;;;7.90;98.00;;;;;;5031555;28;20898;-66
2021/10/16 04:45:08;;;;;;;1.30;1.10;;;7.90;98.00;;;;;;5031900;28;20516;-66
2021/10/16 04:47:36;;;;;;;1.40;1.20;;;8.00;98.00;;;;;;5031585;28;20489;-66
2021/10/16 04:50:06;;;;;;;1.40;1.00;;;8.10;98.00;;;;;;5031870;28;20539;-66
2021/10/16 04:52:34;;;;;;;1.20;1.20;;;8.00;98.00;;;;;;5031841;28;20465;-66
2021/10/16 04:55:01;;;;;;;1.20;1.00;;;8.00;98.00;;;;;;5031716;28;20514;-66
2021/10/16 04:57:28;;;;;;;1.43;1.00;;;7.90;98.00;;;;;;5031655;28;20549;-66
2021/10/16 04:59:55;;;;;;;1.57;1.20;;;7.90;98.00;;;;;;5031584;28;20548;-66
2021/10/16 05:02:24;;;;;;;2.43;1.03;;;7.90;98.00;;;;;;5031657;28;20474;-66
2021/10/16 05:04:51;;;;;;;1.20;1.10;;;8.00;98.00;;;;;;5031481;28;20462;-66
2021/10/16 05:07:19;;;;;;;2.60;1.40;;;8.20;98.00;;;;;;5031526;28;20488;-67
2021/10/16 05:09:49;;;;;;;1.40;1.10;;;8.30;98.00;;;;;;5031470;28;20483;-66
2021/10/16 05:12:16;;;;;;;1.20;1.00;;;8.30;98.00;;;;;;5031345;28;20545;-67
2021/10/16 05:14:44;;;;;;;1.30;1.00;;;8.30;98.00;;;;;;5031143;28;20556;-66
2021/10/16 05:17:11;;;;;;;2.17;1.27;;;8.30;98.00;;;;;;5031445;28;20454;-66
2021/10/16 05:19:38;;;;;;;1.20;1.17;;;8.20;98.00;;;;;;5031268;28;20527;-66
2021/10/16 05:22:05;;;;;;;1.67;1.20;;;8.10;98.00;;;;;;5031333;28;20536;-66
2021/10/16 05:24:34;;;;;;;2.40;1.60;;;8.10;98.00;;;;;;5031187;28;21035;-66
2021/10/16 05:27:01;;;;;;;1.70;1.10;;;8.10;98.00;;;;;;5013642;28;20515;-66
2021/10/16 05:29:28;;;;;;;3.10;1.37;;;8.00;98.00;;;;;;5013542;28;20471;-66
2021/10/16 05:31:55;;;;;;;2.47;1.40;;;8.00;98.00;;;;;;5031079;28;20470;-66
2021/10/16 05:34:22;;;;;;;1.43;1.30;;;8.00;98.00;;;;;;5031105;28;20466;-66
2021/10/16 05:36:49;;;;;;;1.20;0.97;;;8.10;98.00;;;;;;5031333;28;20466;-66
2021/10/16 05:39:17;;;;;;;1.53;1.20;;;8.10;98.00;;;;;;5030356;28;20457;-66
2021/10/16 05:41:47;;;;;;;1.20;1.00;;;8.00;98.00;;;;;;5030934;28;20495;-66
2021/10/16 05:44:14;;;;;;;3.60;1.30;;;7.90;98.00;;;;;;5031005;28;20863;-66
2021/10/16 05:46:41;;;;;;;1.20;1.00;;;7.90;98.00;;;;;;5031325;28;20496;-66
2021/10/16 05:49:08;;;;;;;1.57;1.43;;;7.90;98.00;;;;;;5031158;28;20708;-66
2021/10/16 05:51:35;;;;;;;1.30;1.30;;;7.80;98.00;;;;;;5031301;28;20836;-66
2021/10/16 05:54:02;;;;;;;2.17;1.47;;;7.80;98.00;;;;;;5030763;28;20509;-66
2021/10/16 05:56:29;;;;;;;1.87;1.37;;;7.70;98.00;;;;;;5031091;28;20460;-66
2021/10/16 05:58:58;;;;;;;1.20;1.00;;;7.60;98.00;;;;;;5030946;28;20487;-66
2021/10/16 06:01:26;;;;;;;1.50;1.13;;;7.60;98.00;;;;;;5030858;28;20492;-66
2021/10/16 06:03:53;;;;;;;1.57;1.20;;;7.50;98.00;;;;;;5030827;28;20554;-66
2021/10/16 06:06:20;;;;;;;2.27;1.30;;;7.50;98.00;;;;;;5013432;28;20487;-66
2021/10/16 06:08:47;;;;;;;1.20;1.20;;;7.40;98.00;;;;;;5030681;28;20506;-66
2021/10/16 06:11:17;;;;;;;1.50;1.20;;;7.50;98.00;;;;;;5030648;28;20497;-66
2021/10/16 06:13:44;;;;;;;9.13;3.47;;;7.60;98.00;;;;;;5030670;28;20458;-66
2021/10/16 06:16:12;;;;;;;3.30;1.73;;;7.50;98.00;;;;;;5030733;28;20932;-65
2021/10/16 06:18:43;;;;;;;1.77;1.23;;;7.50;98.00;;;;;;5030802;28;20465;-66
2021/10/16 06:21:10;;;;;;;1.30;1.20;;;7.70;98.00;;;;;;5030405;28;20484;-66
2021/10/16 06:23:37;;;;;;;1.20;1.00;;;7.80;98.00;;;;;;5030696;28;20464;-66
2021/10/16 06:26:04;;;;;;;1.53;1.47;;;7.70;98.00;;;;;;5013002;28;20456;-66
2021/10/16 06:28:31;;;;;;;1.20;1.00;;;7.70;98.00;;;;;;5030377;28;20462;-66
2021/10/16 06:30:58;;;;;;;1.50;1.10;;;7.80;98.00;;;;;;5030589;28;20485;-66
2021/10/16 06:33:29;;;;;;;1.77;1.30;;;7.90;98.00;;;;;;5030540;28;20540;-66
2021/10/16 06:35:56;;;;;;;1.20;1.20;;;8.00;98.00;;;;;;5030397;28;20864;-66
2021/10/16 06:38:23;;;;;;;1.40;1.20;;;8.10;98.00;;;;;;5030598;28;20495;-66
2021/10/16 06:40:50;;;;;;;1.20;1.10;;;8.10;98.00;;;;;;5030445;28;20516;-66
2021/10/16 06:43:17;;;;;;;1.70;1.40;;;8.00;98.00;;;;;;5030650;28;20507;-66
2021/10/16 06:45:44;;;;;;;2.70;1.67;;;7.90;98.00;;;;;;5030407;28;20460;-65
2021/10/16 06:48:11;;;;;;;1.43;1.27;;;7.90;98.00;;;;;;5030321;28;20548;-67
2021/10/16 06:50:39;;;;;;;1.30;1.23;;;8.00;98.00;;;;;;5033488;28;20865;-67
2021/10/16 06:53:06;;;;;;;7.07;2.10;;;8.00;98.00;;;;;;5033926;28;20494;-67
2021/10/16 06:55:35;;;;;;;1.20;1.00;;;8.10;98.00;;;;;;5033957;28;20502;-66
2021/10/16 06:58:01;;;;;;;1.30;1.27;;;8.20;98.00;;;;;;5033981;28;21004;-66
2021/10/16 07:00:29;;;;;;;1.57;1.30;;;8.30;98.00;;;;;;5033784;28;20485;-66
2021/10/16 07:02:55;;;;;;;1.50;1.13;;;8.40;98.00;;;;;;5033925;28;20454;-66
2021/10/16 07:05:28;;;;;;;1.20;0.97;;;8.50;98.00;;;;;;5033766;28;20484;-66
2021/10/16 07:07:56;;;;;;;1.80;1.23;;;8.60;98.00;;;;;;5033526;28;20515;-66
2021/10/16 07:10:24;;;;;;;2.17;1.40;;;8.90;98.00;;;;;;5033752;28;20453;-66
2021/10/16 07:12:52;;;;;;;1.53;1.23;;;9.10;98.00;;;;;;5033246;28;20510;-66
2021/10/16 07:15:19;;;;;;;1.20;0.90;;;9.30;98.00;;;;;;5033880;28;20885;-66
2021/10/16 07:17:46;;;;;;;3.37;1.70;;;9.40;98.00;;;;;;5034067;28;20459;-67
2021/10/16 07:20:13;;;;;;;2.27;1.50;;;9.60;98.00;;;;;;5033523;28;20466;-66
2021/10/16 07:22:40;;;;;;;2.37;1.63;;;9.90;98.00;;;;;;5033550;28;20513;-66
2021/10/16 07:25:10;;;;;;;1.80;1.47;;;10.10;98.00;;;;;;5015768;28;20520;-66
2021/10/16 07:27:37;;;;;;;1.90;1.10;;;10.30;98.00;;;;;;5033330;28;20458;-66
2021/10/16 07:30:05;;;;;;;1.47;1.43;;;10.30;98.00;;;;;;5033297;28;20523;-66
2021/10/16 07:32:33;;;;;;;1.43;1.40;;;10.30;98.00;;;;;;5033178;28;21039;-67
2021/10/16 07:35:00;;;;;;;2.03;1.40;;;10.40;98.00;;;;;;5033044;28;20446;-66
2021/10/16 07:37:29;;;;;;;1.87;1.47;;;10.40;98.00;;;;;;5033285;28;20457;-66
2021/10/16 07:39:59;;;;;;;2.13;1.83;;;10.60;98.00;;;;;;5033167;28;20803;-66
2021/10/16 07:42:28;;;;;;;1.30;1.20;;;10.60;98.00;;;;;;5033356;28;20576;-65
2021/10/16 07:44:55;;;;;;;1.57;1.53;;;10.60;98.00;;;;;;5033064;28;20455;-66
2021/10/16 07:47:26;;;;;;;1.20;1.10;;;10.60;98.00;;;;;;5033154;28;20494;-66
2021/10/16 07:49:53;;;;;;;1.97;1.30;;;10.70;98.00;;;;;;5032906;28;20500;-66
2021/10/16 07:52:20;;;;;;;1.80;1.37;;;10.80;98.00;;;;;;5032911;28;20528;-66
2021/10/16 07:54:47;;;;;;;3.40;1.87;;;10.80;98.00;;;;;;5032765;28;20465;-66
2021/10/16 07:57:14;;;;;;;1.70;1.50;;;10.80;98.00;;;;;;5032889;28;20464;-66
2021/10/16 07:59:43;;;;;;;1.50;1.20;;;10.70;98.00;;;;;;5032787;28;20462;-66
2021/10/16 08:02:10;;;;;;;2.17;1.60;;;10.70;98.00;;;;;;5032040;28;20580;-66
2021/10/16 08:04:37;;;;;;;2.70;1.73;;;10.70;98.00;;;;;;5032579;28;21000;-67
2021/10/16 08:07:04;;;;;;;2.33;1.40;;;10.70;98.00;;;;;;5032523;28;21024;-66
2021/10/16 08:09:31;;;;;;;2.03;1.13;;;10.80;98.00;;;;;;5032503;28;20495;-66
2021/10/16 08:11:58;;;;;;;2.23;1.50;;;10.90;98.00;;;;;;5032483;28;20464;-66
2021/10/16 08:14:25;;;;;;;2.10;1.30;;;11.10;98.00;;;;;;5032426;28;20527;-67
2021/10/16 08:16:53;;;;;;;1.30;1.23;;;11.20;98.00;;;;;;5032536;28;20499;-66
2021/10/16 08:19:20;;;;;;;3.90;2.00;;;11.20;98.00;;;;;;5032313;28;20529;-67
2021/10/16 08:21:48;;;;;;;3.03;1.47;;;11.30;98.00;;;;;;5032280;28;20488;-66
2021/10/16 08:24:15;;;;;;;2.10;2.00;;;11.20;98.00;;;;;;5032298;28;20462;-66
2021/10/16 08:26:42;;;;;;;2.03;1.60;;;11.10;98.00;;;;;;5032302;28;20888;-67
2021/10/16 08:29:09;;;;;;;4.60;1.87;;;11.00;98.00;;;;;;5032343;28;20490;-66
2021/10/16 08:31:36;;;;;;;1.20;1.10;;;11.00;98.00;;;;;;5032297;28;20458;-66
2021/10/16 08:34:04;;;;;;;2.23;1.73;;;11.00;98.00;;;;;;5032411;28;20463;-67
2021/10/16 08:36:31;;;;;;;1.70;1.53;;;11.20;98.00;;;;;;5032312;28;20459;-66
2021/10/16 08:38:58;;;;;;;1.90;1.47;;;11.20;98.00;;;;;;5014712;28;20875;-66
2021/10/16 08:41:25;;;;;;;2.40;2.00;;;11.30;98.00;;;;;;5032031;28;20894;-66
2021/10/16 08:43:52;;;;;;;4.13;1.80;;;11.40;98.00;;;;;;5032095;28;20459;-66
2021/10/16 08:46:20;;;;;;;4.97;1.87;;;11.70;98.00;;;;;;5031915;28;20491;-66
2021/10/16 08:48:47;;;;;;;4.83;1.83;;;11.80;98.00;;;;;;5032036;28;20489;-66
2021/10/16 08:51:16;;;;;;;2.47;1.93;;;12.00;98.00;;;;;;5031937;28;20604;-65
2021/10/16 08:53:43;;;;;;;2.20;1.50;;;12.00;98.00;;;;;;5031761;28;20556;-65
2021/10/16 08:56:10;;;;;;;1.53;1.43;;;12.00;98.00;;;;;;5031680;28;20494;-66
2021/10/16 08:58:38;;;;;;;1.73;1.67;;;12.10;98.00;;;;;;5031900;28;20802;-66
2021/10/16 09:01:06;;;;;;;1.90;1.80;;;12.10;98.00;;;;;;5031564;28;20849;-66
2021/10/16 09:03:35;;;;;;;2.07;1.87;;;12.30;98.00;;;;;;5031799;28;20781;-66
2021/10/16 09:06:09;;;;;;;3.10;2.47;;;12.50;98.00;;;;;;5031389;28;20461;-66
2021/10/16 09:08:40;;;;;;;4.77;2.40;;;12.70;98.00;;;;;;5031405;28;20949;-66
2021/10/16 09:11:33;;;;;;;2.17;1.50;;;12.70;98.00;;;;;;5031433;28;20970;-66
2021/10/16 09:14:03;;;;;;;1.57;1.33;;;12.60;98.00;;;;;;5030378;28;20461;-66
2021/10/16 09:16:39;;;;;;;2.63;1.87;;;12.60;98.00;;;;;;5031349;28;20461;-66
2021/10/16 09:19:15;;;;;;;1.97;1.50;;;12.60;98.00;;;;;;5031373;28;20460;-66
2021/10/16 09:21:47;;;;;;;1.90;1.60;;;12.80;98.00;;;;;;5031110;28;20547;-66
2021/10/16 09:24:18;;;;;;;2.33;2.17;;;12.70;98.00;;;;;;4998045;28;20485;-65
2021/10/16 09:26:49;;;;;;;2.00;1.90;;;12.80;98.00;;;;;;5031201;28;20459;-65
2021/10/16 09:29:17;;;;;;;1.87;1.57;;;12.90;98.00;;;;;;5013592;28;21032;-66
2021/10/16 09:31:46;;;;;;;1.73;1.30;;;13.00;98.00;;;;;;5031287;28;20462;-65
2021/10/16 09:34:14;;;;;;;2.27;1.80;;;13.10;98.00;;;;;;5031161;28;20752;-65
2021/10/16 09:36:42;;;;;;;2.13;1.97;;;13.20;98.00;;;;;;5030965;28;21009;-66
2021/10/16 09:39:18;;;;;;;2.60;1.97;;;13.40;98.00;;;;;;5031170;28;20460;-65
2021/10/16 09:41:54;;;;;;;2.43;1.83;;;13.50;98.00;;;;;;5030933;28;21035;-66
2021/10/16 09:44:24;;;;;;;2.03;1.80;;;13.50;98.00;;;;;;5013321;28;20533;-65
2021/10/16 09:47:03;;;;;;;2.60;2.13;;;13.50;98.00;;;;;;5031159;28;20462;-66
2021/10/16 09:49:33;;;;;;;3.43;2.30;;;13.40;98.00;;;;;;5030575;28;20450;-66
2021/10/16 09:52:00;;;;;;;1.53;1.40;;;13.30;98.00;;;;;;5031004;28;20492;-66
2021/10/16 09:54:30;;;;;;;4.00;2.60;;;13.20;98.00;;;;;;5031302;28;20522;-66
2021/10/16 09:56:59;;;;;;;1.90;1.73;;;13.10;98.00;;;;;;5031280;28;20457;-65
2021/10/16 09:59:27;;;;;;;2.27;1.83;;;13.00;98.00;;;;;;5031240;28;20449;-66
2021/10/16 10:01:54;;;;;;;2.80;1.77;;;13.00;98.00;;;;;;5013525;28;20536;-65
2021/10/16 10:04:23;;;;;;;2.03;1.50;;;13.00;98.00;;;;;;5030911;28;20464;-65
2021/10/16 10:06:51;;;;;;;1.90;1.53;;;13.00;98.00;;;;;;5013082;28;20543;-66
2021/10/16 10:09:18;;;;;;;2.30;1.63;;;13.10;98.00;;;;;;5013556;28;20504;-65
2021/10/16 10:11:48;;;;;;;1.50;1.43;;;13.30;98.00;;;;;;5030904;28;20530;-65
2021/10/16 10:14:19;;;;;;;2.53;2.33;;;13.40;98.00;;;;;;5030922;28;20470;-66
2021/10/16 10:16:48;;;;;;;2.47;1.40;;;13.60;98.00;;;;;;5030652;28;20544;-66
2021/10/16 10:19:15;;;;;;;3.80;1.90;;;13.60;98.00;;;;;;5030872;28;20470;-65
2021/10/16 10:21:43;;;;;;;2.37;2.17;;;13.70;98.00;;;;;;5030561;28;20582;-66
2021/10/16 10:24:12;;;;;;;2.07;1.70;;;13.70;98.00;;;;;;5031647;28;20457;-66
2021/10/16 10:26:40;;;;;;;1.60;1.43;;;13.70;98.00;;;;;;5016641;28;20546;-66
2021/10/16 10:29:10;;;;;;;1.80;1.67;;;13.80;98.00;;;;;;5034408;28;20490;-66
2021/10/16 10:31:58;;;;;;;2.27;1.73;;;13.90;98.00;;;;;;5034288;28;20491;-65
2021/10/16 10:34:29;;;;;;;3.10;2.03;;;14.00;98.00;;;;;;5034389;28;20462;-66
2021/10/16 10:36:59;;;;;;;2.53;1.67;;;14.40;98.00;;;;;;5034431;28;20484;-66
2021/10/16 10:39:42;;;;;;;2.17;1.60;;;14.60;98.00;;;;;;5034586;28;20553;-65
2021/10/16 10:42:42;;;;;;;1.57;1.20;;;14.70;98.00;;;;;;5034166;28;20547;-65
2021/10/16 10:45:40;;;;;;;3.63;2.13;;;14.50;98.00;;;;;;5034198;28;21058;-66
2021/10/16 10:48:17;;;;;;;3.10;1.97;;;14.80;98.00;;;;;;5034212;28;20468;-66
2021/10/16 10:51:01;;;;;;;2.07;1.90;;;15.30;98.00;;;;;;5034017;28;20454;-65
2021/10/16 10:53:37;;;;;;;2.23;2.07;;;15.60;98.00;;;;;;5033970;28;20464;-66
2021/10/16 10:56:07;;;;;;;2.40;1.90;;;16.00;98.00;;;;;;5034059;28;20501;-66
2021/10/16 10:58:58;;;;;;;2.80;1.50;;;16.30;98.00;;;;;;5034022;28;20457;-66
2021/10/16 11:02:03;;;;;;;2.43;2.10;;;16.70;98.00;;;;;;5033667;28;20870;-65
2021/10/16 11:04:38;;;;;;;2.20;2.00;;;16.80;98.00;;;;;;4953426;28;20453;-65
2021/10/16 11:07:11;;;;;;;2.40;1.93;;;17.10;98.00;;;;;;4953325;28;20468;-66
2021/10/16 11:09:38;;;;;;;2.90;1.90;;;17.40;98.00;;;;;;4998991;28;20454;-66
2021/10/16 11:12:07;;;;;;;2.17;1.97;;;17.70;98.00;;;;;;5033845;28;20490;-66
2021/10/16 11:14:35;;;;;;;1.70;1.60;;;18.00;98.00;;;;;;5033792;28;20468;-66
2021/10/16 11:17:05;;;;;;;2.50;1.40;;;18.10;97.80;;;;;;5033807;28;20513;-66
2021/10/16 11:19:53;;;;;;;1.97;1.67;;;18.40;97.40;;;;;;5033815;28;20497;-65
2021/10/16 11:22:22;;;;;;;2.37;1.80;;;18.60;97.30;;;;;;5033719;28;20517;-66
2021/10/16 11:24:49;;;;;;;2.57;2.30;;;18.70;97.50;;;;;;5033531;28;20463;-66
2021/10/16 11:27:22;;;;;;;2.67;2.03;;;18.90;96.40;;;;;;5015656;28;20451;-66
2021/10/16 11:29:49;;;;;;;2.70;1.90;;;18.90;96.40;;;;;;5033312;28;20536;-65
2021/10/16 11:32:19;;;;;;;1.73;1.47;;;18.70;95.50;;;;;;5033240;28;20948;-66
2021/10/16 11:34:57;;;;;;;2.00;1.70;;;18.50;96.60;;;;;;5033080;28;20453;-67
2021/10/16 11:37:43;;;;;;;2.40;1.67;;;18.30;96.50;;;;;;5032363;28;20478;-66
2021/10/16 11:40:12;;;;;;;2.13;1.60;;;18.30;98.00;;;;;;5033176;28;20942;-66
2021/10/16 11:42:43;;;;;;;4.77;2.77;;;18.50;97.60;;;;;;5033142;28;20490;-66
2021/10/16 11:45:12;;;;;;;2.07;1.70;;;18.60;95.00;;;;;;5033010;28;20450;-65
2021/10/16 11:47:42;;;;;;;3.40;2.10;;;18.50;95.30;;;;;;5015342;28;20454;-65
2021/10/16 11:50:18;;;;;;;1.57;1.40;;;18.20;97.20;;;;;;5032988;28;20459;-66
2021/10/16 11:52:50;;;;;;;1.40;1.20;;;18.20;98.00;;;;;;5032995;28;20459;-66
2021/10/16 11:55:20;;;;;;;2.33;1.83;;;18.30;98.00;;;;;;5032885;28;20548;-66
2021/10/16 11:57:48;;;;;;;1.40;1.40;;;18.50;97.60;;;;;;5032751;28;20513;-66
2021/10/16 12:00:28;;;;;;;2.00;1.73;;;18.50;97.10;;;;;;5032617;28;20458;-66
2021/10/16 12:02:58;;;;;;;2.37;1.50;;;18.60;96.40;;;;;;5032634;28;20633;-66
2021/10/16 12:05:26;;;;;;;2.17;1.60;;;18.50;95.20;;;;;;5015291;28;20532;-66
2021/10/16 12:07:54;;;;;;;2.27;2.00;;;18.40;95.50;;;;;;5032524;28;20455;-66
2021/10/16 12:10:28;;;;;;;2.10;1.70;;;18.20;96.30;;;;;;5032594;28;20459;-66
2021/10/16 12:13:04;;;;;;;2.93;1.80;;;18.00;97.20;;;;;;5032500;28;20524;-67
2021/10/16 12:15:38;;;;;;;1.73;1.43;;;17.70;97.40;;;;;;5032399;28;20516;-66
2021/10/16 12:18:15;;;;;;;1.97;1.50;;;17.60;96.10;;;;;;5032688;28;20486;-66
2021/10/16 12:20:51;;;;;;;2.00;1.70;;;17.60;97.90;;;;;;5032352;28;20817;-67
2021/10/16 12:23:18;;;;;;;1.70;1.47;;;17.50;98.00;;;;;;5032265;28;20544;-66
2021/10/16 12:25:50;;;;;;;1.60;1.47;;;17.50;98.00;;;;;;5032371;28;20464;-66
2021/10/16 12:28:18;;;;;;;1.50;1.40;;;17.70;97.30;;;;;;5032445;28;20549;-65
2021/10/16 12:31:07;;;;;;;1.93;1.40;;;17.90;96.70;;;;;;5032397;28;20874;-66
2021/10/16 12:34:00;;;;;;;1.40;1.40;;;17.80;95.50;;;;;;5026754;28;20846;-67
2021/10/16 12:36:29;;;;;;;1.40;1.30;;;17.70;94.50;;;;;;5032185;28;20516;-66
2021/10/16 12:38:56;;;;;;;2.00;1.63;;;17.70;94.80;;;;;;5032262;28;20459;-66
2021/10/16 12:41:32;;;;;;;1.60;1.30;;;17.90;95.30;;;;;;5032394;28;20458;-66
2021/10/16 12:44:13;;;;;;;1.53;1.50;;;18.00;95.10;;;;;;5032133;28;20569;-66
2021/10/16 12:46:40;;;;;;;1.40;1.30;;;18.00;92.50;;;;;;5013855;28;20466;-67
2021/10/16 12:49:26;;;;;;;2.53;1.47;;;18.10;92.90;;;;;;5031976;28;20509;-66
2021/10/16 12:51:54;;;;;;;1.40;1.20;;;18.10;92.80;;;;;;5031697;28;20462;-67
2021/10/16 12:54:39;;;;;;;2.50;1.90;;;18.10;92.30;;;;;;5031939;28;20646;-66
2021/10/16 12:57:09;;;;;;;1.67;1.33;;;18.10;94.10;;;;;;5028297;28;20458;-66
2021/10/16 12:59:37;;;;;;;2.77;2.10;;;18.40;93.80;;;;;;5031890;28;20470;-66
2021/10/16 13:02:05;;;;;;;1.53;1.40;;;18.40;94.50;;;;;;5031621;28;20498;-66
2021/10/16 13:04:48;;;;;;;1.40;1.27;;;18.70;94.10;;;;;;5031530;28;20504;-66